Time;durP1;ratioP1;P1;durP2;ratioP2;P2;SDS_P1;SDS_P2;PMS_P1;PMS_P2;Temp;Humidity;BMP_temperature;BMP_pressure;BME280_temperature;BME280_humidity;BME280_pressure;Samples;Min_cycle;Max_cycle;Signal;HPM_P1;HPM_P2
2021/09/17 00:01:53;;;;;;;6.88;4.60;;;21.00;89.00;;;;;;5079628;28;20032;-61
2021/09/17 00:04:19;;;;;;;6.43;4.57;;;21.10;89.00;;;;;;5083240;28;20645;-61
2021/09/17 00:06:44;;;;;;;7.03;4.20;;;21.00;89.00;;;;;;5082857;28;20025;-61
2021/09/17 00:09:10;;;;;;;6.22;4.32;;;21.00;89.00;;;;;;5082501;28;20036;-61
2021/09/17 00:11:35;;;;;;;6.03;4.50;;;21.00;89.10;;;;;;5081523;28;20066;-61
2021/09/17 00:14:01;;;;;;;4.80;4.28;;;21.00;89.20;;;;;;5064069;28;20028;-61
2021/09/17 00:16:27;;;;;;;8.50;4.80;;;20.90;89.10;;;;;;5082861;28;20074;-61
2021/09/17 00:18:52;;;;;;;7.93;4.70;;;20.90;89.20;;;;;;5081388;28;20035;-61
2021/09/17 00:21:18;;;;;;;5.43;4.10;;;20.90;89.20;;;;;;5063215;28;20028;-61
2021/09/17 00:23:43;;;;;;;6.13;4.35;;;20.90;89.20;;;;;;5081241;28;20113;-61
2021/09/17 00:26:09;;;;;;;5.88;4.43;;;20.90;89.20;;;;;;5081971;28;20371;-61
2021/09/17 00:28:34;;;;;;;7.28;4.68;;;20.80;89.20;;;;;;5046261;28;20135;-61
2021/09/17 00:31:00;;;;;;;5.95;4.50;;;20.90;89.20;;;;;;5078319;28;20102;-61
2021/09/17 00:33:25;;;;;;;5.40;4.50;;;20.90;89.30;;;;;;5063662;28;20124;-61
2021/09/17 00:35:51;;;;;;;6.50;4.55;;;20.80;89.20;;;;;;5080587;28;20020;-61
2021/09/17 00:38:17;;;;;;;5.68;4.47;;;20.80;89.20;;;;;;5080310;28;20031;-61
2021/09/17 00:40:42;;;;;;;7.18;5.05;;;20.80;89.20;;;;;;5082568;28;21324;-61
2021/09/17 00:43:08;;;;;;;5.15;4.60;;;20.80;89.50;;;;;;5082650;28;20020;-61
2021/09/17 00:45:34;;;;;;;5.38;4.45;;;20.80;89.20;;;;;;5083177;28;20542;-61
2021/09/17 00:47:59;;;;;;;5.72;4.80;;;20.70;89.00;;;;;;5083773;28;20027;-61
2021/09/17 00:50:25;;;;;;;5.75;4.70;;;20.70;89.00;;;;;;5082115;28;20442;-61
2021/09/17 00:52:51;;;;;;;5.80;5.07;;;20.80;89.10;;;;;;5081451;28;20466;-61
2021/09/17 00:55:16;;;;;;;5.50;4.95;;;20.70;89.00;;;;;;5063943;28;20024;-61
2021/09/17 00:57:42;;;;;;;8.38;5.10;;;20.70;89.00;;;;;;5061941;28;20044;-61
2021/09/17 01:00:10;;;;;;;9.15;5.28;;;20.70;89.00;;;;;;5066732;28;20035;-61
2021/09/17 01:02:35;;;;;;;6.78;4.70;;;20.70;89.00;;;;;;5063772;28;20024;-60
2021/09/17 01:05:01;;;;;;;7.05;5.15;;;20.70;89.00;;;;;;5060706;28;20036;-62
2021/09/17 01:07:26;;;;;;;7.90;5.00;;;20.70;89.00;;;;;;5063305;28;20028;-61
2021/09/17 01:09:52;;;;;;;6.70;4.93;;;20.70;89.00;;;;;;5060681;28;20039;-61
2021/09/17 01:12:17;;;;;;;5.75;4.93;;;20.70;89.00;;;;;;5063614;28;20036;-61
2021/09/17 01:14:43;;;;;;;6.63;4.95;;;20.60;89.00;;;;;;5064312;28;20024;-61
2021/09/17 01:17:09;;;;;;;7.88;5.38;;;20.60;88.90;;;;;;5077967;28;20106;-61
2021/09/17 01:19:35;;;;;;;9.90;5.70;;;20.60;89.00;;;;;;5079665;28;20067;-61
2021/09/17 01:22:05;;;;;;;8.10;5.30;;;20.60;88.90;;;;;;5080743;28;20024;-61
2021/09/17 01:24:30;;;;;;;7.93;5.70;;;20.60;89.00;;;;;;5078931;28;20051;-61
2021/09/17 01:26:56;;;;;;;10.75;5.43;;;20.60;89.00;;;;;;5080052;28;20023;-61
2021/09/17 01:29:21;;;;;;;6.57;5.70;;;20.60;88.90;;;;;;5059318;28;20036;-60
2021/09/17 01:31:47;;;;;;;7.60;5.55;;;20.60;89.00;;;;;;5080576;28;20035;-61
2021/09/17 01:34:15;;;;;;;8.48;5.55;;;20.60;89.00;;;;;;5076856;28;20059;-61
2021/09/17 01:36:41;;;;;;;9.23;5.63;;;20.60;89.00;;;;;;5077889;28;20194;-61
2021/09/17 01:39:06;;;;;;;10.70;6.40;;;20.50;88.90;;;;;;5075663;28;20277;-61
2021/09/17 01:41:32;;;;;;;11.55;6.10;;;20.60;88.90;;;;;;5044176;28;20673;-61
2021/09/17 01:43:57;;;;;;;6.55;5.75;;;20.60;88.90;;;;;;5080233;28;20016;-61
2021/09/17 01:46:23;;;;;;;10.40;6.15;;;20.50;88.90;;;;;;5061054;28;20373;-61
2021/09/17 01:48:48;;;;;;;10.15;5.80;;;20.50;88.90;;;;;;5077188;28;20036;-61
2021/09/17 01:51:14;;;;;;;6.63;5.40;;;20.50;88.90;;;;;;5063552;28;20511;-61
2021/09/17 01:53:40;;;;;;;7.28;5.47;;;20.50;88.90;;;;;;5080263;28;20027;-61
2021/09/17 01:56:05;;;;;;;9.05;5.78;;;20.50;88.90;;;;;;5080720;28;20096;-61
2021/09/17 01:58:31;;;;;;;6.30;5.50;;;20.50;88.90;;;;;;5080062;28;20024;-61
2021/09/17 02:00:57;;;;;;;10.90;5.97;;;20.50;88.90;;;;;;5078822;28;20058;-61
2021/09/17 02:03:23;;;;;;;10.65;6.28;;;20.40;88.80;;;;;;5062606;28;20035;-61
2021/09/17 02:05:48;;;;;;;10.02;6.10;;;20.50;88.80;;;;;;5080583;28;20114;-61
2021/09/17 02:08:14;;;;;;;11.02;5.72;;;20.40;88.70;;;;;;5080910;28;20039;-61
2021/09/17 02:10:39;;;;;;;12.35;6.95;;;20.40;88.70;;;;;;5081081;28;20343;-61
2021/09/17 02:13:05;;;;;;;10.73;6.25;;;20.40;88.80;;;;;;5061210;28;20467;-61
2021/09/17 02:15:30;;;;;;;12.13;6.13;;;20.40;88.70;;;;;;5077477;28;20040;-61
2021/09/17 02:17:56;;;;;;;11.52;6.50;;;20.40;88.80;;;;;;5079442;28;20028;-61
2021/09/17 02:20:21;;;;;;;11.43;6.93;;;20.40;88.70;;;;;;5080558;28;20040;-61
2021/09/17 02:22:47;;;;;;;13.98;7.45;;;20.40;88.90;;;;;;5081695;28;20024;-61
2021/09/17 02:25:12;;;;;;;12.88;6.60;;;20.40;88.80;;;;;;5080346;28;20040;-61
2021/09/17 02:27:38;;;;;;;12.90;6.53;;;20.30;88.70;;;;;;5078275;28;20032;-61
2021/09/17 02:30:05;;;;;;;9.25;6.57;;;20.30;88.70;;;;;;5077313;28;20035;-61
2021/09/17 02:32:31;;;;;;;9.40;6.00;;;20.30;88.80;;;;;;5043132;28;20054;-61
2021/09/17 02:34:56;;;;;;;12.77;6.78;;;20.30;88.70;;;;;;5079509;28;20028;-61
2021/09/17 02:37:22;;;;;;;13.43;7.03;;;20.30;88.70;;;;;;5081466;28;20032;-61
2021/09/17 02:39:47;;;;;;;10.57;6.30;;;20.30;88.70;;;;;;5079286;28;20164;-61
2021/09/17 02:42:13;;;;;;;15.88;6.68;;;20.30;88.60;;;;;;5080476;28;20078;-61
2021/09/17 02:44:38;;;;;;;14.07;6.60;;;20.30;88.60;;;;;;5081660;28;20012;-61
2021/09/17 02:47:04;;;;;;;11.05;5.72;;;20.30;88.60;;;;;;5081745;28;20109;-61
2021/09/17 02:49:33;;;;;;;7.75;5.60;;;20.20;88.50;;;;;;5077381;28;20028;-61
2021/09/17 02:51:59;;;;;;;9.93;6.05;;;20.20;88.60;;;;;;5081798;28;20420;-61
2021/09/17 02:54:24;;;;;;;10.68;6.55;;;20.20;88.60;;;;;;5056916;28;20123;-61
2021/09/17 02:56:50;;;;;;;13.25;6.45;;;20.20;88.60;;;;;;5081218;28;20155;-61
2021/09/17 02:59:15;;;;;;;9.18;6.25;;;20.10;88.60;;;;;;5082180;28;20028;-61
2021/09/17 03:01:41;;;;;;;9.10;6.47;;;20.20;88.60;;;;;;5063114;28;20336;-61
2021/09/17 03:04:06;;;;;;;13.60;6.13;;;20.20;88.60;;;;;;5061430;28;20119;-60
2021/09/17 03:06:32;;;;;;;13.55;6.47;;;20.20;88.50;;;;;;5058907;28;20051;-60
2021/09/17 03:08:57;;;;;;;8.90;6.40;;;20.10;89.10;;;;;;5064441;28;20559;-61
2021/09/17 03:11:23;;;;;;;9.75;6.20;;;20.10;88.50;;;;;;5084735;28;20023;-61
2021/09/17 03:13:48;;;;;;;12.52;6.05;;;20.10;88.40;;;;;;5064908;28;20061;-61
2021/09/17 03:16:14;;;;;;;8.13;5.28;;;20.10;88.40;;;;;;5066138;28;20032;-61
2021/09/17 03:18:40;;;;;;;9.85;6.07;;;20.10;88.50;;;;;;5064999;28;20111;-61
2021/09/17 03:21:05;;;;;;;9.30;5.55;;;20.00;88.50;;;;;;5063913;28;20419;-61
2021/09/17 03:23:31;;;;;;;9.73;5.82;;;20.00;88.60;;;;;;5064843;28;20151;-61
2021/09/17 03:25:56;;;;;;;9.77;5.97;;;20.00;88.50;;;;;;5046215;28;20052;-61
2021/09/17 03:28:22;;;;;;;9.07;6.03;;;20.00;88.50;;;;;;5082684;28;20460;-61
2021/09/17 03:30:47;;;;;;;26.65;7.65;;;20.00;88.40;;;;;;5065524;28;20205;-61
2021/09/17 03:33:15;;;;;;;43.05;9.30;;;20.00;88.30;;;;;;5065662;28;20321;-61
2021/09/17 03:35:41;;;;;;;66.93;10.35;;;20.00;89.00;;;;;;5081005;28;20465;-61
2021/09/17 03:38:07;;;;;;;85.10;10.23;;;20.00;88.30;;;;;;5067312;28;20055;-60
2021/09/17 03:40:33;;;;;;;43.13;9.73;;;20.00;88.30;;;;;;5065830;28;20142;-60
2021/09/17 03:42:59;;;;;;;47.08;9.20;;;20.00;88.30;;;;;;5081976;28;20035;-61
2021/09/17 03:45:24;;;;;;;42.80;9.10;;;19.90;88.30;;;;;;5065280;28;20024;-61
2021/09/17 03:47:50;;;;;;;60.47;9.80;;;20.00;88.30;;;;;;5084278;28;20465;-61
2021/09/17 03:50:15;;;;;;;55.95;10.00;;;20.00;88.20;;;;;;5065080;28;20093;-61
2021/09/17 03:52:41;;;;;;;88.70;10.77;;;19.90;88.20;;;;;;5083832;28;20043;-61
2021/09/17 03:55:07;;;;;;;97.00;12.45;;;19.90;88.20;;;;;;5083975;28;20123;-61
2021/09/17 03:57:32;;;;;;;125.20;14.50;;;20.10;88.40;;;;;;5065462;28;20067;-61
2021/09/17 03:59:58;;;;;;;143.43;14.98;;;19.90;88.10;;;;;;5083365;28;20052;-61
2021/09/17 04:02:24;;;;;;;108.85;12.95;;;19.90;88.10;;;;;;5084692;28;20029;-61
2021/09/17 04:04:49;;;;;;;130.38;13.13;;;19.90;88.10;;;;;;5084194;28;20024;-61
2021/09/17 04:07:15;;;;;;;145.65;14.50;;;19.90;88.00;;;;;;5062572;28;20032;-61
2021/09/17 04:09:40;;;;;;;137.57;15.63;;;19.90;88.10;;;;;;5082036;28;20099;-62
2021/09/17 04:12:06;;;;;;;101.53;13.35;;;19.80;88.10;;;;;;5083377;28;20458;-61
2021/09/17 04:14:32;;;;;;;122.05;14.48;;;19.80;88.10;;;;;;5065951;28;20539;-61
2021/09/17 04:16:57;;;;;;;70.95;11.77;;;19.90;88.20;;;;;;5083402;28;20047;-61
2021/09/17 04:19:23;;;;;;;86.00;11.77;;;19.80;88.10;;;;;;5083340;28;20024;-61
2021/09/17 04:21:48;;;;;;;72.28;11.50;;;19.80;88.20;;;;;;5084667;28;20482;-61
2021/09/17 04:24:14;;;;;;;65.20;9.63;;;19.80;88.30;;;;;;5079565;28;20583;-61
2021/09/17 04:26:39;;;;;;;66.05;11.38;;;19.80;88.40;;;;;;5061434;28;20420;-61
2021/09/17 04:29:05;;;;;;;66.10;10.35;;;19.80;88.50;;;;;;5066620;28;20403;-61
2021/09/17 04:31:31;;;;;;;60.33;9.32;;;19.80;88.30;;;;;;5084418;28;20378;-61
2021/09/17 04:33:57;;;;;;;52.35;10.20;;;19.80;88.30;;;;;;5064807;28;20020;-61
2021/09/17 04:36:22;;;;;;;78.20;9.73;;;19.80;88.20;;;;;;5083090;28;20034;-61
2021/09/17 04:38:48;;;;;;;63.80;9.80;;;19.80;88.20;;;;;;5082977;28;20479;-61
2021/09/17 04:41:13;;;;;;;61.20;10.80;;;19.80;88.10;;;;;;5083137;28;20514;-61
2021/09/17 04:43:39;;;;;;;57.97;9.20;;;19.70;88.10;;;;;;5083231;28;20020;-62
2021/09/17 04:46:04;;;;;;;175.98;17.80;;;19.70;88.20;;;;;;5079902;28;20123;-60
2021/09/17 04:48:30;;;;;;;98.18;12.90;;;19.70;88.20;;;;;;5076495;28;20102;-61
2021/09/17 04:50:55;;;;;;;141.10;14.48;;;19.70;88.20;;;;;;5081595;28;20524;-61
2021/09/17 04:53:21;;;;;;;99.38;12.32;;;19.70;88.30;;;;;;5064792;28;20035;-61
2021/09/17 04:55:47;;;;;;;127.97;13.63;;;19.70;88.30;;;;;;5083118;28;20028;-62
2021/09/17 04:58:13;;;;;;;101.45;11.48;;;19.60;88.20;;;;;;5084557;28;20522;-61
2021/09/17 05:00:39;;;;;;;84.85;11.55;;;19.70;88.30;;;;;;5063767;28;20044;-61
2021/09/17 05:03:05;;;;;;;139.93;14.68;;;19.70;88.30;;;;;;5064192;28;20032;-61
2021/09/17 05:05:31;;;;;;;166.48;20.40;;;19.70;88.20;;;;;;5063245;28;20086;-61
2021/09/17 05:07:56;;;;;;;145.48;16.15;;;19.70;88.30;;;;;;5082300;28;20040;-61
2021/09/17 05:10:22;;;;;;;157.07;16.23;;;19.70;88.10;;;;;;5062158;28;20028;-61
2021/09/17 05:12:47;;;;;;;121.47;14.77;;;19.60;88.10;;;;;;5061347;28;20219;-61
2021/09/17 05:15:13;;;;;;;123.50;15.02;;;19.60;88.20;;;;;;5062630;28;20111;-61
2021/09/17 05:17:39;;;;;;;95.68;12.57;;;19.60;88.10;;;;;;5063940;28;20371;-61
2021/09/17 05:20:05;;;;;;;100.35;12.18;;;19.60;88.10;;;;;;5083018;28;20039;-61
2021/09/17 05:22:30;;;;;;;117.05;13.85;;;19.60;88.10;;;;;;5061876;28;20265;-61
2021/09/17 05:24:57;;;;;;;116.78;14.30;;;19.50;88.10;;;;;;5030717;28;20055;-61
2021/09/17 05:27:23;;;;;;;120.55;15.15;;;19.60;88.30;;;;;;5040451;28;20369;-61
2021/09/17 05:29:48;;;;;;;109.85;13.68;;;19.60;88.30;;;;;;5059735;28;20037;-61
2021/09/17 05:32:14;;;;;;;123.03;13.70;;;19.60;88.30;;;;;;5062600;28;20391;-61
2021/09/17 05:34:39;;;;;;;96.95;11.98;;;19.60;88.40;;;;;;5060904;28;20479;-61
2021/09/17 05:37:05;;;;;;;77.75;11.82;;;19.50;88.20;;;;;;5059237;28;20547;-61
2021/09/17 05:39:31;;;;;;;100.32;12.23;;;19.50;88.40;;;;;;5060308;28;20478;-61
2021/09/17 05:41:56;;;;;;;80.72;11.57;;;19.60;89.00;;;;;;5042822;28;20044;-61
2021/09/17 05:44:22;;;;;;;75.85;11.35;;;19.50;88.20;;;;;;5059147;28;20500;-61
2021/09/17 05:46:47;;;;;;;65.50;10.32;;;19.50;88.30;;;;;;5062211;28;20488;-62
2021/09/17 05:49:13;;;;;;;84.53;12.20;;;19.50;88.40;;;;;;5059769;28;20033;-61
2021/09/17 05:51:38;;;;;;;69.28;10.20;;;19.50;88.40;;;;;;5062194;28;20069;-61
2021/09/17 05:54:04;;;;;;;77.50;10.77;;;19.50;88.20;;;;;;5060283;28;20563;-61
2021/09/17 05:56:30;;;;;;;53.42;10.32;;;19.50;88.20;;;;;;5042364;28;20340;-61
2021/09/17 05:58:55;;;;;;;61.88;9.82;;;19.50;88.20;;;;;;5044198;28;20054;-61
2021/09/17 06:01:21;;;;;;;69.90;10.30;;;19.50;88.10;;;;;;5061195;28;20441;-61
2021/09/17 06:03:47;;;;;;;63.67;10.50;;;19.50;88.00;;;;;;5056264;28;20503;-61
2021/09/17 06:06:12;;;;;;;47.13;8.57;;;19.50;88.10;;;;;;5056899;28;20094;-61
2021/09/17 06:08:38;;;;;;;56.78;10.00;;;19.50;88.10;;;;;;5058099;28;20437;-61
2021/09/17 06:11:03;;;;;;;55.15;9.55;;;19.50;88.10;;;;;;5042991;28;20036;-61
2021/09/17 06:13:29;;;;;;;54.30;8.77;;;19.50;88.10;;;;;;5062201;28;20345;-61
2021/09/17 06:15:54;;;;;;;35.35;7.85;;;19.50;88.10;;;;;;5056459;28;20036;-61
2021/09/17 06:18:20;;;;;;;32.17;8.10;;;19.50;88.10;;;;;;5060771;28;20044;-61
2021/09/17 06:20:46;;;;;;;57.83;8.98;;;19.50;88.00;;;;;;5061059;28;20152;-61
2021/09/17 06:23:12;;;;;;;45.47;8.23;;;19.50;88.00;;;;;;5063247;28;20464;-61
2021/09/17 06:25:37;;;;;;;33.38;8.30;;;19.50;88.20;;;;;;5045998;28;20068;-61
2021/09/17 06:28:04;;;;;;;29.88;8.63;;;19.50;88.10;;;;;;5060953;28;20372;-61
2021/09/17 06:30:30;;;;;;;37.17;7.35;;;19.50;88.10;;;;;;5071306;28;20039;-61
2021/09/17 06:32:55;;;;;;;55.47;9.15;;;19.50;88.10;;;;;;5040904;28;20024;-61
2021/09/17 06:35:21;;;;;;;55.17;10.10;;;19.50;88.10;;;;;;5031412;28;20055;-61
2021/09/17 06:37:56;;;;;;;57.92;8.52;;;19.50;88.10;;;;;;5058161;28;20028;-61
2021/09/17 06:40:23;;;;;;;71.60;8.45;;;19.50;88.00;;;;;;5082251;28;20036;-62
2021/09/17 06:42:49;;;;;;;50.45;8.52;;;19.50;88.10;;;;;;5060768;28;20277;-61
2021/09/17 06:45:14;;;;;;;44.85;7.93;;;19.50;88.70;;;;;;5048070;28;20043;-61
2021/09/17 06:47:47;;;;;;;41.08;8.73;;;19.50;88.00;;;;;;5047266;28;20028;-61
2021/09/17 06:50:14;;;;;;;43.92;9.07;;;19.50;88.20;;;;;;5065474;28;20138;-61
2021/09/17 06:52:46;;;;;;;42.60;8.45;;;19.50;88.10;;;;;;5085280;28;20383;-61
2021/09/17 06:55:12;;;;;;;30.80;8.50;;;19.50;88.00;;;;;;5083661;28;20040;-61
2021/09/17 06:57:43;;;;;;;49.35;9.05;;;19.50;88.40;;;;;;5079275;28;20050;-61
2021/09/17 07:00:09;;;;;;;47.75;8.43;;;19.50;88.20;;;;;;5075495;28;20554;-61
2021/09/17 07:02:34;;;;;;;36.03;9.32;;;19.50;88.10;;;;;;5084100;28;20032;-61
2021/09/17 07:05:00;;;;;;;41.50;8.65;;;19.50;88.10;;;;;;5083701;28;20024;-61
2021/09/17 07:07:25;;;;;;;47.10;10.57;;;19.50;87.90;;;;;;5063525;28;20050;-61
2021/09/17 07:09:51;;;;;;;35.60;9.45;;;19.50;87.90;;;;;;5084871;28;20032;-61
2021/09/17 07:12:17;;;;;;;28.13;10.40;;;19.40;87.40;;;;;;5084135;28;20028;-61
2021/09/17 07:14:42;;;;;;;33.65;10.93;;;19.40;87.50;;;;;;5083536;28;20024;-61
2021/09/17 07:17:08;;;;;;;33.33;9.27;;;19.30;87.60;;;;;;5077277;28;20750;-61
2021/09/17 07:19:33;;;;;;;23.52;8.85;;;19.30;87.90;;;;;;5080628;28;20460;-61
2021/09/17 07:21:59;;;;;;;42.67;10.70;;;19.20;88.10;;;;;;5077819;28;20526;-61
2021/09/17 07:24:24;;;;;;;64.72;10.43;;;19.20;88.60;;;;;;5070978;28;20072;-61
2021/09/17 07:26:51;;;;;;;37.80;10.25;;;19.10;88.70;;;;;;5061735;28;20072;-61
2021/09/17 07:29:16;;;;;;;45.50;9.60;;;19.00;88.60;;;;;;5051403;28;20089;-61
2021/09/17 07:31:43;;;;;;;38.50;9.35;;;19.00;88.70;;;;;;5063066;28;20033;-61
2021/09/17 07:34:09;;;;;;;26.23;8.25;;;19.00;88.70;;;;;;5058164;28;20029;-61
2021/09/17 07:36:34;;;;;;;34.95;8.50;;;18.90;88.80;;;;;;5072719;28;20062;-61
2021/09/17 07:39:00;;;;;;;33.05;8.80;;;18.90;88.80;;;;;;5047161;28;20080;-61
2021/09/17 07:41:25;;;;;;;45.55;9.43;;;18.90;88.90;;;;;;5062351;28;20051;-61
2021/09/17 07:43:51;;;;;;;31.67;9.77;;;18.90;89.00;;;;;;5058522;28;20121;-61
2021/09/17 07:46:16;;;;;;;37.58;8.95;;;18.80;89.00;;;;;;5063368;28;20047;-61
2021/09/17 07:48:42;;;;;;;33.13;8.65;;;18.80;89.30;;;;;;5063590;28;20109;-61
2021/09/17 07:51:08;;;;;;;31.63;9.60;;;18.80;89.60;;;;;;5052554;28;20431;-61
2021/09/17 07:53:33;;;;;;;39.17;9.40;;;18.80;89.50;;;;;;5034070;28;20131;-61
2021/09/17 07:55:59;;;;;;;40.22;9.93;;;18.80;89.50;;;;;;5060252;28;20119;-61
2021/09/17 07:58:24;;;;;;;45.28;10.45;;;18.80;89.60;;;;;;5068396;28;20068;-61
2021/09/17 08:00:50;;;;;;;27.88;9.25;;;18.80;89.40;;;;;;5059422;28;20133;-61
2021/09/17 08:03:15;;;;;;;30.67;9.35;;;18.80;89.50;;;;;;5066261;28;20350;-61
2021/09/17 08:05:41;;;;;;;37.00;9.43;;;18.80;89.60;;;;;;5034505;28;20112;-61
2021/09/17 08:08:06;;;;;;;82.32;14.55;;;18.80;89.60;;;;;;5035731;28;20399;-61
2021/09/17 08:10:32;;;;;;;35.78;10.27;;;18.80;89.70;;;;;;5061394;28;20517;-61
2021/09/17 08:12:58;;;;;;;41.05;10.95;;;18.80;89.50;;;;;;5062213;28;20023;-61
2021/09/17 08:15:24;;;;;;;49.80;12.32;;;18.70;89.60;;;;;;5067075;28;21074;-61
2021/09/17 08:17:49;;;;;;;51.33;11.32;;;18.70;89.70;;;;;;5057027;28;20028;-61
2021/09/17 08:20:15;;;;;;;85.43;13.63;;;18.80;89.80;;;;;;5026384;28;20431;-61
2021/09/17 08:22:40;;;;;;;140.27;17.67;;;18.70;89.90;;;;;;5053091;28;20032;-61
2021/09/17 08:25:06;;;;;;;102.57;14.38;;;18.70;89.90;;;;;;5048767;28;20108;-61
2021/09/17 08:27:32;;;;;;;120.65;15.85;;;18.70;89.80;;;;;;5064157;28;20036;-61
2021/09/17 08:29:57;;;;;;;110.97;15.90;;;18.80;89.60;;;;;;5064721;28;20043;-61
2021/09/17 08:32:23;;;;;;;127.15;16.83;;;18.80;89.40;;;;;;5045880;28;20044;-61
2021/09/17 08:34:48;;;;;;;46.45;10.60;;;18.80;89.30;;;;;;5025546;28;20024;-61
2021/09/17 08:37:14;;;;;;;66.30;12.10;;;18.80;88.60;;;;;;5041756;28;20025;-61
2021/09/17 08:39:39;;;;;;;63.28;12.75;;;18.80;88.30;;;;;;5065663;28;20085;-61
2021/09/17 08:42:07;;;;;;;71.53;14.38;;;18.80;88.50;;;;;;5045317;28;20120;-61
2021/09/17 08:44:32;;;;;;;70.82;14.20;;;18.80;88.70;;;;;;5048981;28;20047;-61
2021/09/17 08:46:58;;;;;;;89.15;13.20;;;18.90;88.50;;;;;;5028347;28;20016;-61
2021/09/17 08:49:23;;;;;;;87.30;14.13;;;18.90;88.30;;;;;;5059098;28;20324;-61
2021/09/17 08:51:49;;;;;;;103.18;15.45;;;18.90;88.60;;;;;;5056315;28;20080;-61
2021/09/17 08:54:15;;;;;;;108.40;16.75;;;18.90;88.70;;;;;;5042279;28;20032;-61
2021/09/17 08:56:41;;;;;;;158.23;18.98;;;18.90;88.50;;;;;;5036622;28;20127;-61
2021/09/17 08:59:06;;;;;;;102.55;14.65;;;18.90;88.10;;;;;;5055229;28;20633;-61
2021/09/17 09:01:36;;;;;;;96.85;17.73;;;18.90;88.10;;;;;;5054708;28;20407;-61
2021/09/17 09:04:04;;;;;;;60.55;12.07;;;18.90;88.10;;;;;;5040254;28;20044;-61
2021/09/17 09:06:34;;;;;;;52.70;11.85;;;18.90;88.00;;;;;;5042053;28;20048;-62
2021/09/17 09:09:00;;;;;;;83.40;14.93;;;19.00;88.20;;;;;;5041969;28;20040;-61
2021/09/17 09:11:26;;;;;;;81.18;12.50;;;19.00;87.90;;;;;;5035668;28;20036;-61
2021/09/17 09:14:11;;;;;;;157.75;18.00;;;19.00;88.10;;;;;;5055141;28;20029;-61
2021/09/17 09:16:45;;;;;;;170.00;21.07;;;19.00;87.90;;;;;;5031750;28;20029;-61
2021/09/17 09:19:28;;;;;;;96.60;14.20;;;19.10;88.10;;;;;;5051419;28;20042;-61
2021/09/17 09:22:03;;;;;;;103.85;15.93;;;19.10;87.80;;;;;;5052337;28;20033;-61
2021/09/17 09:24:29;;;;;;;82.80;12.27;;;19.10;87.80;;;;;;5046528;28;20056;-61
2021/09/17 09:27:13;;;;;;;93.60;12.27;;;19.10;87.70;;;;;;5074841;28;20430;-61
2021/09/17 09:29:40;;;;;;;118.07;16.48;;;19.20;87.60;;;;;;5059168;28;20099;-61
2021/09/17 09:32:06;;;;;;;96.50;13.93;;;19.30;87.50;;;;;;5041750;28;20104;-61
2021/09/17 09:34:52;;;;;;;69.43;11.40;;;19.30;87.10;;;;;;5050170;28;20040;-61
2021/09/17 09:37:25;;;;;;;102.93;14.32;;;19.20;87.00;;;;;;5054767;28;20076;-61
2021/09/17 09:39:58;;;;;;;97.65;14.10;;;19.30;86.80;;;;;;5035481;28;20090;-61
2021/09/17 09:42:41;;;;;;;103.13;13.60;;;19.30;86.80;;;;;;5055994;28;20143;-61
2021/09/17 09:45:20;;;;;;;59.08;10.25;;;19.30;86.50;;;;;;5079116;28;20110;-61
2021/09/17 09:47:50;;;;;;;115.53;14.77;;;19.30;85.90;;;;;;5045419;28;20032;-61
2021/09/17 09:50:26;;;;;;;61.05;10.02;;;19.30;85.10;;;;;;5038842;28;20054;-61
2021/09/17 09:52:53;;;;;;;132.20;17.55;;;19.40;85.40;;;;;;5062402;28;20016;-61
2021/09/17 09:55:19;;;;;;;111.97;13.98;;;19.30;85.30;;;;;;5056666;28;20687;-61
2021/09/17 09:57:45;;;;;;;90.80;12.85;;;19.40;85.40;;;;;;5057670;28;20025;-61
2021/09/17 10:00:12;;;;;;;136.73;16.00;;;19.40;85.30;;;;;;5057411;28;20024;-61
2021/09/17 10:02:38;;;;;;;102.72;12.00;;;19.40;85.80;;;;;;5052933;28;20024;-61
2021/09/17 10:05:08;;;;;;;104.97;12.60;;;19.50;85.10;;;;;;5049149;28;20032;-61
2021/09/17 10:07:33;;;;;;;59.47;10.35;;;19.50;85.00;;;;;;5056226;28;20090;-61
2021/09/17 10:09:59;;;;;;;77.00;10.73;;;19.50;84.80;;;;;;5052686;28;20020;-61
2021/09/17 10:12:27;;;;;;;127.40;14.00;;;19.60;84.60;;;;;;5057977;28;20056;-61
2021/09/17 10:14:52;;;;;;;57.08;9.93;;;19.50;84.00;;;;;;5071011;28;20102;-61
2021/09/17 10:17:20;;;;;;;63.17;8.95;;;19.50;83.60;;;;;;5057021;28;20142;-61
2021/09/17 10:19:46;;;;;;;42.17;7.28;;;19.60;83.60;;;;;;5075335;28;20032;-61
2021/09/17 10:22:45;;;;;;;43.83;6.30;;;19.60;83.30;;;;;;5071568;28;20199;-61
2021/09/17 10:25:22;;;;;;;37.97;7.63;;;19.60;83.20;;;;;;5047556;28;20586;-61
2021/09/17 10:28:08;;;;;;;70.25;9.52;;;19.60;83.00;;;;;;5055889;28;20291;-61
2021/09/17 10:30:36;;;;;;;87.47;11.13;;;19.70;83.10;;;;;;5054541;28;20043;-61
2021/09/17 10:33:02;;;;;;;59.38;7.95;;;19.70;82.60;;;;;;5074349;28;20475;-61
2021/09/17 10:35:41;;;;;;;53.13;7.95;;;19.70;82.00;;;;;;5057567;28;20055;-61
2021/09/17 10:38:10;;;;;;;57.83;7.28;;;19.80;81.60;;;;;;5072643;28;20071;-61
2021/09/17 10:40:43;;;;;;;73.03;9.80;;;19.80;81.20;;;;;;5076637;28;20021;-61
2021/09/17 10:43:09;;;;;;;55.08;7.93;;;19.80;81.20;;;;;;5047728;28;20350;-61
2021/09/17 10:45:45;;;;;;;34.00;7.07;;;19.80;81.30;;;;;;5061515;28;20039;-61
2021/09/17 10:48:11;;;;;;;39.95;6.47;;;19.90;80.60;;;;;;5075228;28;20020;-61
2021/09/17 10:50:46;;;;;;;126.53;12.60;;;19.90;80.30;;;;;;5051920;28;20033;-61
2021/09/17 10:53:12;;;;;;;70.68;8.43;;;19.90;80.30;;;;;;5078450;28;20448;-62
2021/09/17 10:55:43;;;;;;;58.13;8.02;;;20.00;79.90;;;;;;5073966;28;20211;-61
2021/09/17 10:58:27;;;;;;;54.22;6.90;;;20.00;80.00;;;;;;5077864;28;20536;-61
2021/09/17 11:00:54;;;;;;;83.50;11.32;;;20.10;80.00;;;;;;5050768;28;20051;-61
2021/09/17 11:03:54;;;;;;;97.85;9.07;;;20.10;80.00;;;;;;5073930;28;20310;-62
2021/09/17 11:06:53;;;;;;;58.22;7.38;;;20.20;79.90;;;;;;5057030;28;20139;-62
2021/09/17 11:09:11;;;;;;;44.40;6.35;;;20.20;79.40;;;;;;5063576;28;20044;-61
2021/09/17 11:11:40;;;;;;;29.80;5.13;;;20.20;79.40;;;;;;5067554;28;20032;-61
2021/09/17 11:14:08;;;;;;;37.28;5.43;;;20.20;79.20;;;;;;5071854;28;20025;-61
2021/09/17 11:16:33;;;;;;;42.70;6.18;;;20.20;78.90;;;;;;5075639;28;20135;-61
2021/09/17 11:19:00;;;;;;;40.03;5.85;;;20.30;78.70;;;;;;5075645;28;20111;-61
2021/09/17 11:21:28;;;;;;;43.33;6.63;;;20.30;78.50;;;;;;5065035;28;20249;-61
2021/09/17 11:23:53;;;;;;;49.17;7.18;;;20.30;78.30;;;;;;5069685;28;20031;-61
2021/09/17 11:26:33;;;;;;;24.33;3.85;;;20.30;78.40;;;;;;5073175;28;20554;-61
2021/09/17 11:28:59;;;;;;;41.15;5.38;;;20.40;77.70;;;;;;5054603;28;20028;-61
2021/09/17 11:31:37;;;;;;;31.13;5.10;;;20.40;77.40;;;;;;5065394;28;20062;-61
2021/09/17 11:34:04;;;;;;;48.03;6.03;;;20.40;77.40;;;;;;5078805;28;20031;-61
2021/09/17 11:36:38;;;;;;;62.03;8.07;;;20.50;77.20;;;;;;5058955;28;20054;-61
2021/09/17 11:39:37;;;;;;;23.55;4.05;;;20.50;77.20;;;;;;5075982;28;20039;-61
2021/09/17 11:42:07;;;;;;;61.60;8.60;;;20.60;77.00;;;;;;5045535;28;20088;-62
2021/09/17 11:44:51;;;;;;;60.00;6.43;;;20.60;76.70;;;;;;5048978;28;20036;-61
2021/09/17 11:47:28;;;;;;;47.03;6.28;;;20.70;76.80;;;;;;5063583;28;20117;-61
2021/09/17 11:49:58;;;;;;;36.38;5.78;;;20.60;76.50;;;;;;5063031;28;20094;-62
2021/09/17 11:52:23;;;;;;;30.15;4.93;;;20.70;76.00;;;;;;5080713;28;20044;-61
2021/09/17 11:55:03;;;;;;;32.15;5.57;;;20.70;76.00;;;;;;5060537;28;20062;-62
2021/09/17 11:57:36;;;;;;;24.63;4.75;;;20.70;75.90;;;;;;5061913;28;20032;-61
2021/09/17 12:00:09;;;;;;;35.05;5.55;;;20.70;76.00;;;;;;5057128;28;20040;-61
2021/09/17 12:02:35;;;;;;;43.72;5.63;;;20.70;75.80;;;;;;5074905;28;20031;-61
2021/09/17 12:05:02;;;;;;;32.53;5.20;;;20.70;75.30;;;;;;5079171;28;20028;-61
2021/09/17 12:07:28;;;;;;;46.78;6.10;;;20.70;75.10;;;;;;5067222;28;20040;-61
2021/09/17 12:09:54;;;;;;;34.95;4.30;;;20.70;75.00;;;;;;5061093;28;20016;-61
2021/09/17 12:12:22;;;;;;;71.68;8.63;;;20.70;74.90;;;;;;5079499;28;20028;-61
2021/09/17 12:14:54;;;;;;;74.43;7.82;;;20.80;75.10;;;;;;5080491;28;20087;-61
2021/09/17 12:17:20;;;;;;;37.88;4.95;;;20.80;74.90;;;;;;5061181;28;20031;-61
2021/09/17 12:20:12;;;;;;;58.40;7.35;;;20.90;74.80;;;;;;5061442;28;20498;-61
2021/09/17 12:22:44;;;;;;;52.05;6.68;;;21.00;75.10;;;;;;5075353;28;20048;-61
2021/09/17 12:25:15;;;;;;;69.07;7.65;;;21.00;75.30;;;;;;5047189;28;20511;-61
2021/09/17 12:27:44;;;;;;;64.60;7.88;;;21.00;75.00;;;;;;5041547;28;20048;-61
2021/09/17 12:30:15;;;;;;;76.88;6.60;;;21.10;74.80;;;;;;5056593;28;20035;-61
2021/09/17 12:32:41;;;;;;;81.60;9.15;;;21.30;74.80;;;;;;5075665;28;20143;-61
2021/09/17 12:35:15;;;;;;;89.13;10.68;;;21.10;74.40;;;;;;5057275;28;20101;-61